createdAt,value
2023-02-16T00:00:15.877Z,100032.88
2023-02-16T00:02:43.034Z,100032.28
2023-02-16T00:05:24.243Z,100035.16
2023-02-16T00:07:51.638Z,100024.59
2023-02-16T00:10:18.695Z,100033.69
2023-02-16T00:13:04.694Z,100032.84
2023-02-16T00:15:33.324Z,100036.13
2023-02-16T00:18:02.861Z,100037.38
2023-02-16T00:20:32.651Z,100036.56
2023-02-16T00:22:59.541Z,100037.56
2023-02-16T00:25:26.597Z,100034.25
2023-02-16T00:27:53.575Z,100037.16
2023-02-16T00:30:22.484Z,100035.69
2023-02-16T00:32:51.641Z,100027.81
2023-02-16T00:35:20.092Z,100040.66
2023-02-16T00:37:47.586Z,100042.50
2023-02-16T00:40:15.464Z,100043.53
2023-02-16T00:42:44.169Z,100044.78
2023-02-16T00:45:17.353Z,100037.69
2023-02-16T00:47:47.316Z,100034.41
2023-02-16T00:50:22.512Z,100036.03
2023-02-16T00:52:49.931Z,100034.78
2023-02-16T00:55:18.777Z,100031.28
2023-02-16T00:57:48.579Z,100034.97
2023-02-16T01:00:20.213Z,100043.03
2023-02-16T01:02:47.906Z,100040.56
2023-02-16T01:05:15.405Z,100041.16
2023-02-16T01:08:02.680Z,100033.47
2023-02-16T01:10:48.461Z,100036.38
2023-02-16T01:13:16.126Z,100037.59
2023-02-16T01:15:43.802Z,100038.63
2023-02-16T01:18:13.979Z,100032.22
2023-02-16T01:20:40.865Z,100035.09
2023-02-16T01:23:10.063Z,100034.28
2023-02-16T01:25:38.020Z,100036.13
2023-02-16T01:28:17.743Z,100032.78
2023-02-16T01:30:44.690Z,100034.66
2023-02-16T01:33:11.532Z,100031.31
2023-02-16T01:35:39.065Z,100022.44
2023-02-16T01:38:06.036Z,100028.63
2023-02-16T01:40:44.519Z,100016.41
2023-02-16T01:43:19.067Z,100013.72
2023-02-16T01:45:51.319Z,100013.91
2023-02-16T01:48:24.668Z,100016.59
2023-02-16T01:50:59.103Z,100016.00
2023-02-16T01:53:32.843Z,100016.19
2023-02-16T01:56:04.969Z,100017.22
2023-02-16T01:58:38.275Z,100013.84
2023-02-16T02:01:45.835Z,100020.47
2023-02-16T02:04:38.641Z,100015.47
2023-02-16T02:07:05.778Z,100013.81
2023-02-16T02:09:40.780Z,100003.25
2023-02-16T02:12:18.540Z,100001.41
2023-02-16T02:14:45.566Z,99994.38
2023-02-16T02:17:16.632Z,100003.44
2023-02-16T02:19:52.348Z,100001.78
2023-02-16T02:23:20.384Z,100002.81
2023-02-16T02:26:34.856Z,99997.00
2023-02-16T02:29:23.578Z,99993.84
2023-02-16T02:32:00.356Z,100001.31
2023-02-16T02:34:46.846Z,100000.28
2023-02-16T02:37:23.877Z,100002.97
2023-02-16T02:40:02.199Z,99995.94
2023-02-16T02:42:33.745Z,99992.59
2023-02-16T02:45:07.360Z,99997.97
2023-02-16T02:47:42.139Z,99990.75
2023-02-16T02:50:41.648Z,99999.00
2023-02-16T02:53:14.100Z,99999.38
2023-02-16T02:56:05.336Z,99995.03
2023-02-16T02:59:11.224Z,99995.22
2023-02-16T03:01:42.999Z,100000.81
2023-02-16T03:04:14.484Z,99996.25
2023-02-16T03:06:45.802Z,99985.06
2023-02-16T03:09:15.224Z,99981.38
2023-02-16T03:12:00.689Z,99990.88
2023-02-16T03:14:33.501Z,99992.13
2023-02-16T03:17:24.703Z,99996.66
2023-02-16T03:20:11.075Z,99997.03
2023-02-16T03:22:57.880Z,99991.22
2023-02-16T03:25:48.100Z,99992.88
2023-02-16T03:28:36.396Z,100003.00
2023-02-16T03:31:05.544Z,99991.41
2023-02-16T03:33:34.901Z,99993.06
2023-02-16T03:36:03.177Z,99988.53
2023-02-16T03:38:30.534Z,99997.16
2023-02-16T03:40:57.487Z,99992.25
2023-02-16T03:43:25.662Z,99982.72
2023-02-16T03:45:52.637Z,99984.56
2023-02-16T03:48:19.942Z,99986.22
2023-02-16T03:50:48.256Z,99992.44
2023-02-16T03:53:17.066Z,99995.50
2023-02-16T03:55:46.768Z,99992.63
2023-02-16T03:58:16.384Z,99990.97
2023-02-16T04:00:43.294Z,99998.19
2023-02-16T04:03:10.453Z,99997.34
2023-02-16T04:05:37.800Z,99993.00
2023-02-16T04:08:07.412Z,99990.34
2023-02-16T04:10:34.351Z,99996.53
2023-02-16T04:13:01.649Z,100003.78
2023-02-16T04:15:29.802Z,99991.56
2023-02-16T04:17:57.234Z,99996.75
2023-02-16T04:20:26.294Z,99995.09
2023-02-16T04:22:53.476Z,100000.84
2023-02-16T04:25:22.121Z,100005.19
2023-02-16T04:27:50.052Z,99990.28
2023-02-16T04:30:19.009Z,100007.25
2023-02-16T04:32:45.938Z,100000.84
2023-02-16T04:35:13.286Z,100000.00
2023-02-16T04:37:40.312Z,100001.03
2023-02-16T04:40:11.108Z,100006.59
2023-02-16T04:42:39.388Z,100011.16
2023-02-16T04:45:07.091Z,100011.34
2023-02-16T04:47:34.332Z,100010.50
2023-02-16T04:50:01.187Z,100010.69
2023-02-16T04:52:28.157Z,100005.31
2023-02-16T04:54:55.021Z,100008.00
2023-02-16T04:57:24.208Z,100008.00
2023-02-16T04:59:52.509Z,100009.03
2023-02-16T05:02:19.532Z,99999.31
2023-02-16T05:04:46.443Z,99999.50
2023-02-16T05:07:13.437Z,99999.31
2023-02-16T05:09:40.335Z,99992.47
2023-02-16T05:12:26.169Z,99981.91
2023-02-16T05:14:54.432Z,99992.00
2023-02-16T05:17:22.860Z,99984.97
2023-02-16T05:19:51.479Z,99984.97
2023-02-16T05:22:18.936Z,99993.03
2023-02-16T05:24:45.855Z,99987.66
2023-02-16T05:27:15.033Z,99989.31
2023-02-16T05:29:42.011Z,99990.34
2023-02-16T05:32:10.771Z,99999.25
2023-02-16T05:34:37.754Z,99993.03
2023-02-16T05:37:05.335Z,99989.31
2023-02-16T05:39:32.205Z,99987.28
2023-02-16T05:41:59.161Z,99993.09
2023-02-16T05:44:26.252Z,99986.31
2023-02-16T05:46:53.202Z,99994.63
2023-02-16T05:49:21.630Z,99998.59
2023-02-16T05:51:48.701Z,100003.38
2023-02-16T05:54:18.696Z,100004.47
2023-02-16T05:56:46.421Z,100009.91
2023-02-16T05:59:14.289Z,100006.41
2023-02-16T06:01:41.557Z,100011.66
2023-02-16T06:04:09.782Z,100006.97
2023-02-16T06:06:38.217Z,100007.00
2023-02-16T06:09:06.371Z,100012.91
2023-02-16T06:11:36.417Z,100013.56
2023-02-16T06:14:04.639Z,100013.41
2023-02-16T06:16:33.295Z,100013.25
2023-02-16T06:19:00.546Z,100020.97
2023-02-16T06:21:27.873Z,100016.25
2023-02-16T06:23:56.709Z,100024.97
2023-02-16T06:26:23.796Z,100023.78
2023-02-16T06:28:50.811Z,100027.16
2023-02-16T06:31:18.276Z,100029.88
2023-02-16T06:33:45.416Z,100021.81
2023-02-16T06:36:12.410Z,100029.31
2023-02-16T06:38:39.696Z,100027.22
2023-02-16T06:41:08.526Z,100032.22
2023-02-16T06:43:35.746Z,100022.69
2023-02-16T06:46:02.639Z,100031.41
2023-02-16T06:48:29.581Z,100029.72
2023-02-16T06:50:56.492Z,100029.09
2023-02-16T06:53:23.438Z,100037.38
2023-02-16T06:55:51.572Z,100033.84
2023-02-16T06:58:19.804Z,100036.75
2023-02-16T07:00:46.910Z,100042.13
2023-02-16T07:03:14.014Z,100040.66
2023-02-16T07:05:40.961Z,100028.25
2023-02-16T07:08:08.419Z,100036.91
2023-02-16T07:10:48.945Z,100030.06
2023-02-16T07:13:16.635Z,100031.13
2023-02-16T07:15:44.880Z,100024.66
2023-02-16T07:18:11.750Z,100033.13
2023-02-16T07:20:38.931Z,100034.97
2023-02-16T07:23:06.712Z,100035.34
2023-02-16T07:25:35.930Z,100041.13
2023-02-16T07:28:03.793Z,100039.69
2023-02-16T07:30:30.954Z,100038.22
2023-02-16T07:32:59.845Z,100034.25
2023-02-16T07:35:27.067Z,100037.78
2023-02-16T07:37:54.136Z,100040.69
2023-02-16T07:40:21.291Z,100046.06
2023-02-16T07:42:48.122Z,100071.53
2023-02-16T07:45:14.997Z,100064.69
2023-02-16T07:47:42.004Z,100070.25
2023-02-16T07:50:11.137Z,100065.06
2023-02-16T07:52:38.099Z,100067.13
2023-02-16T07:55:05.909Z,100061.91
2023-02-16T07:57:32.793Z,100065.66
2023-02-16T07:59:59.706Z,100068.53
2023-02-16T08:02:27.501Z,100065.84
2023-02-16T08:04:54.523Z,100065.03
2023-02-16T08:07:22.878Z,100060.03
2023-02-16T08:09:49.866Z,100063.56
2023-02-16T08:12:17.532Z,100065.22
2023-02-16T08:14:46.674Z,100065.03
2023-02-16T08:17:14.096Z,100066.50
2023-02-16T08:19:41.129Z,100063.81
2023-02-16T08:22:08.710Z,100060.06
2023-02-16T08:24:37.482Z,100063.41
2023-02-16T08:27:05.651Z,100069.81
2023-02-16T08:29:32.907Z,100068.78
2023-02-16T08:32:00.312Z,100068.78
2023-02-16T08:34:27.623Z,100072.09
2023-02-16T08:36:56.901Z,100071.25
2023-02-16T08:39:26.065Z,100066.72
2023-02-16T08:41:55.971Z,100072.94
2023-02-16T08:44:25.324Z,100070.88
2023-02-16T08:46:55.010Z,100073.38
2023-02-16T08:49:23.810Z,100075.88
2023-02-16T08:51:54.677Z,100071.94
2023-02-16T08:54:24.404Z,100074.03
2023-02-16T08:56:51.319Z,100066.75
2023-02-16T08:59:21.616Z,100072.97
2023-02-16T09:01:48.887Z,100075.47
2023-02-16T09:04:17.561Z,100070.09
2023-02-16T09:06:45.489Z,100057.44
2023-02-16T09:09:13.447Z,100053.72
2023-02-16T09:11:41.048Z,100068.22
2023-02-16T09:14:09.335Z,100067.19
2023-02-16T09:16:39.898Z,100072.56
2023-02-16T09:19:06.997Z,100075.91
2023-02-16T09:21:34.070Z,100068.88
2023-02-16T09:24:03.903Z,100075.06
2023-02-16T09:26:32.398Z,100065.13
2023-02-16T09:28:59.600Z,100070.31
2023-02-16T09:31:29.253Z,100070.13
2023-02-16T09:34:01.075Z,100070.13
2023-02-16T09:36:28.658Z,100063.06
2023-02-16T09:38:56.528Z,100074.88
2023-02-16T09:41:30.968Z,100065.75
2023-02-16T09:44:01.190Z,100073.44
2023-02-16T09:46:30.528Z,100068.25
2023-02-16T09:49:02.502Z,100075.94
2023-02-16T09:51:35.076Z,100080.47
2023-02-16T09:54:16.830Z,100082.16
2023-02-16T09:56:49.301Z,100075.09
2023-02-16T09:59:27.881Z,100069.50
2023-02-16T10:02:07.615Z,100064.78
2023-02-16T10:04:46.059Z,100068.94
2023-02-16T10:07:24.653Z,100070.78
2023-02-16T10:09:54.289Z,100065.19
2023-02-16T10:12:25.099Z,100059.63
2023-02-16T10:14:56.587Z,100059.63
2023-02-16T10:17:31.524Z,100071.84
2023-02-16T10:20:04.942Z,100071.22
2023-02-16T10:22:36.932Z,100063.97
2023-02-16T10:25:10.185Z,100061.06
2023-02-16T10:27:39.779Z,100062.97
2023-02-16T10:30:14.508Z,100056.72
2023-02-16T10:32:56.417Z,100061.28
2023-02-16T10:35:32.670Z,100064.81
2023-02-16T10:38:07.577Z,100056.53
2023-02-16T10:40:44.196Z,100054.69
2023-02-16T10:43:17.092Z,100047.59
2023-02-16T10:45:52.264Z,100045.75
2023-02-16T10:48:23.479Z,100043.06
2023-02-16T10:50:58.755Z,100041.22
2023-02-16T10:53:37.240Z,100037.69
2023-02-16T10:56:27.276Z,100042.91
2023-02-16T10:58:54.298Z,100049.94
2023-02-16T11:01:31.698Z,100045.41
2023-02-16T11:03:58.849Z,100042.06
2023-02-16T11:06:27.620Z,100041.22
2023-02-16T11:08:59.281Z,100043.25
2023-02-16T11:11:27.287Z,100043.47
2023-02-16T11:13:59.930Z,100041.81
2023-02-16T11:16:27.831Z,100035.56
2023-02-16T11:19:00.404Z,100032.47
2023-02-16T11:24:27.899Z,100033.06
2023-02-16T11:27:06.874Z,100025.19
2023-02-16T11:29:34.494Z,100025.38
2023-02-16T11:32:07.446Z,100026.41
2023-02-16T11:34:37.297Z,100022.06
2023-02-16T11:37:07.643Z,100024.09
2023-02-16T11:39:38.983Z,100019.75
2023-02-16T11:42:08.869Z,100024.34
2023-02-16T11:44:39.372Z,100016.47
2023-02-16T11:47:22.898Z,100005.69
2023-02-16T11:49:52.118Z,100011.28
2023-02-16T11:52:26.280Z,100006.72
2023-02-16T11:54:57.547Z,100003.81
2023-02-16T11:57:28.471Z,100001.13
2023-02-16T11:59:56.404Z,100003.00
2023-02-16T12:02:59.085Z,99993.47
2023-02-16T12:05:35.707Z,100000.91
2023-02-16T12:08:17.180Z,100006.47
2023-02-16T12:10:58.178Z,100008.75
2023-02-16T12:13:34.903Z,100006.91
2023-02-16T12:16:13.957Z,99990.09
2023-02-16T12:18:59.010Z,99997.34
2023-02-16T12:21:36.138Z,99992.19
2023-02-16T12:24:17.956Z,99987.19
2023-02-16T12:26:50.963Z,99992.75
2023-02-16T12:29:39.288Z,99996.50
2023-02-16T12:32:24.422Z,99988.22
2023-02-16T12:35:08.014Z,99985.09
2023-02-16T12:37:41.668Z,99977.69
2023-02-16T12:40:18.962Z,99978.09
2023-02-16T12:43:01.175Z,99966.75
2023-02-16T12:45:33.063Z,99965.31
2023-02-16T12:48:05.287Z,99965.72
2023-02-16T12:50:35.243Z,99964.94
2023-02-16T12:53:07.277Z,99959.56
2023-02-16T12:55:38.445Z,99961.28
2023-02-16T12:58:19.068Z,99959.50
2023-02-16T13:00:49.692Z,99961.78
2023-02-16T13:03:29.117Z,99947.09
2023-02-16T13:06:06.940Z,99940.66
2023-02-16T13:08:39.826Z,99930.63
2023-02-16T13:11:14.441Z,99929.50
2023-02-16T13:13:45.111Z,99918.75
2023-02-16T13:16:29.080Z,99927.41
2023-02-16T13:18:57.544Z,99916.44
2023-02-16T13:21:52.227Z,99906.50
2023-02-16T13:24:33.897Z,99898.28
2023-02-16T13:27:18.295Z,99897.50
2023-02-16T13:30:05.701Z,99907.25
2023-02-16T13:32:57.911Z,99911.28
2023-02-16T13:35:47.452Z,99919.06
2023-02-16T13:38:31.819Z,99926.16
2023-02-16T13:41:24.639Z,99925.41
2023-02-16T13:43:55.696Z,99923.59
2023-02-16T13:46:27.702Z,99919.06
2023-02-16T13:48:54.969Z,99911.22
2023-02-16T13:51:23.855Z,99911.38
2023-02-16T13:53:54.745Z,99906.50
2023-02-16T13:56:33.059Z,99909.97
2023-02-16T13:59:38.431Z,99920.53
2023-02-16T14:02:11.389Z,99909.84
2023-02-16T14:05:01.719Z,99909.94
2023-02-16T14:07:35.967Z,99905.88
2023-02-16T14:10:02.961Z,99902.81
2023-02-16T14:12:33.824Z,99903.47
2023-02-16T14:15:04.298Z,99903.91
2023-02-16T14:17:34.829Z,99900.63
2023-02-16T14:20:05.264Z,99892.94
2023-02-16T14:22:39.007Z,99888.38
2023-02-16T14:25:30.894Z,99893.13
2023-02-16T14:28:00.624Z,99893.59
2023-02-16T14:30:31.328Z,99892.16
2023-02-16T14:33:17.136Z,99900.75
2023-02-16T14:35:47.481Z,99901.19
2023-02-16T14:38:22.064Z,99904.97
2023-02-16T14:40:53.377Z,99891.88
2023-02-16T14:43:25.078Z,99904.34
2023-02-16T14:46:12.442Z,99894.56
2023-02-16T14:49:13.019Z,99887.94
2023-02-16T14:52:18.332Z,99890.88
2023-02-16T14:55:05.457Z,99890.88
2023-02-16T14:57:38.039Z,99874.66
2023-02-16T15:00:14.452Z,99877.56
2023-02-16T15:02:54.137Z,99877.56
2023-02-16T15:05:23.244Z,99878.63
2023-02-16T15:07:56.689Z,99872.38
2023-02-16T15:10:26.846Z,99888.84
2023-02-16T15:12:55.322Z,99885.09
2023-02-16T15:15:29.086Z,99884.69
2023-02-16T15:17:56.240Z,99883.91
2023-02-16T15:20:27.582Z,99885.97
2023-02-16T15:22:57.045Z,99874.56
2023-02-16T15:25:27.751Z,99882.06
2023-02-16T15:27:59.187Z,99882.06
2023-02-16T15:30:30.613Z,99879.38
2023-02-16T15:33:01.056Z,99885.84
2023-02-16T15:35:32.899Z,99883.34
2023-02-16T15:38:04.353Z,99881.91
2023-02-16T15:40:33.196Z,99889.19
2023-02-16T15:43:07.667Z,99884.19
2023-02-16T15:45:37.949Z,99883.56
2023-02-16T15:48:23.990Z,99875.88
2023-02-16T15:50:54.309Z,99863.44
2023-02-16T15:53:34.963Z,99863.88
2023-02-16T15:56:05.688Z,99857.44
2023-02-16T15:58:33.787Z,99864.91
2023-02-16T16:01:00.786Z,99860.78
2023-02-16T16:03:28.073Z,99853.97
2023-02-16T16:06:00.265Z,99858.53
2023-02-16T16:08:29.942Z,99863.94
2023-02-16T16:10:57.292Z,99867.69
2023-02-16T16:13:26.654Z,99862.50
2023-02-16T16:15:59.565Z,99859.00
2023-02-16T16:18:44.807Z,99871.06
2023-02-16T16:21:18.936Z,99868.81
2023-02-16T16:24:02.162Z,99867.97
2023-02-16T16:26:31.890Z,99869.63
2023-02-16T16:28:59.311Z,99872.34
2023-02-16T16:31:41.748Z,99867.09
2023-02-16T16:34:12.045Z,99871.53
2023-02-16T16:36:45.681Z,99863.81
2023-02-16T16:39:26.537Z,99866.75
2023-02-16T16:42:16.181Z,99860.50
2023-02-16T16:44:45.213Z,99856.97
2023-02-16T16:47:22.226Z,99860.75
2023-02-16T16:49:53.019Z,99864.47
2023-02-16T16:52:35.529Z,99866.38
2023-02-16T16:55:24.823Z,99864.69
2023-02-16T16:57:53.711Z,99861.41
2023-02-16T17:00:21.963Z,99864.69
2023-02-16T17:02:49.073Z,99868.22
2023-02-16T17:05:16.157Z,99865.97
2023-02-16T17:07:43.200Z,99869.28
2023-02-16T17:10:11.641Z,99878.00
2023-02-16T17:12:38.675Z,99878.81
2023-02-16T17:15:07.789Z,99876.50
2023-02-16T17:17:34.793Z,99884.38
2023-02-16T17:20:01.676Z,99880.88
2023-02-16T17:22:28.587Z,99878.34
2023-02-16T17:24:55.433Z,99878.13
2023-02-16T17:27:23.702Z,99881.66
2023-02-16T17:29:50.555Z,99875.44
2023-02-16T17:32:17.582Z,99880.84
2023-02-16T17:34:44.684Z,99882.50
2023-02-16T17:37:11.807Z,99868.13
2023-02-16T17:39:38.893Z,99881.88
2023-02-16T17:42:09.953Z,99885.19
2023-02-16T17:44:38.216Z,99887.91
2023-02-16T17:47:05.165Z,99886.25
2023-02-16T17:49:32.109Z,99878.34
2023-02-16T17:51:58.880Z,99876.47
2023-02-16T17:54:25.831Z,99882.94
2023-02-16T17:56:52.756Z,99876.94
2023-02-16T17:59:19.758Z,99886.47
2023-02-16T18:01:47.992Z,99892.09
2023-02-16T18:04:14.930Z,99899.16
2023-02-16T18:06:41.933Z,99903.13
2023-02-16T18:09:14.388Z,99900.22
2023-02-16T18:11:41.373Z,99905.63
2023-02-16T18:14:08.303Z,99909.97
2023-02-16T18:16:35.333Z,99912.09
2023-02-16T18:19:04.489Z,99913.72
2023-02-16T18:21:31.388Z,99920.19
2023-02-16T18:23:58.274Z,99914.56
2023-02-16T18:26:25.261Z,99922.44
2023-02-16T18:28:52.211Z,99916.44
2023-02-16T18:31:20.671Z,99918.31
2023-02-16T18:33:47.606Z,99922.06
2023-02-16T18:36:15.820Z,99923.72
2023-02-16T18:38:42.805Z,99925.59
2023-02-16T18:41:09.765Z,99928.31
2023-02-16T18:43:37.276Z,99930.19
2023-02-16T18:46:05.792Z,99930.19
2023-02-16T18:48:32.753Z,99923.09
2023-02-16T18:50:59.815Z,99920.38
2023-02-16T18:53:28.197Z,99931.00
2023-02-16T18:55:55.018Z,99926.59
2023-02-16T18:58:21.865Z,99932.00
2023-02-16T19:00:49.099Z,99925.78
2023-02-16T19:03:16.027Z,99925.78
2023-02-16T19:05:42.953Z,99928.72
2023-02-16T19:08:09.909Z,99918.13
2023-02-16T19:10:38.122Z,99922.25
2023-02-16T19:13:07.037Z,99926.59
2023-02-16T19:15:34.138Z,99922.47
2023-02-16T19:18:01.187Z,99925.38
2023-02-16T19:20:29.639Z,99926.22
2023-02-16T19:22:56.638Z,99932.69
2023-02-16T19:25:23.931Z,99934.34
2023-02-16T19:27:52.189Z,99936.44
2023-02-16T19:30:21.663Z,99934.97
2023-02-16T19:32:48.939Z,99931.47
2023-02-16T19:35:15.909Z,99929.56
2023-02-16T19:37:42.829Z,99934.97
2023-02-16T19:40:11.340Z,99933.34
2023-02-16T19:42:39.244Z,99928.97
2023-02-16T19:45:08.826Z,99922.94
2023-02-16T19:47:35.751Z,99923.19
2023-02-16T19:50:02.718Z,99935.25
2023-02-16T19:52:29.628Z,99939.22
2023-02-16T19:54:56.494Z,99935.94
2023-02-16T19:57:23.434Z,99930.97
2023-02-16T19:59:50.285Z,99936.38
2023-02-16T20:02:18.600Z,99927.88
2023-02-16T20:04:45.515Z,99920.19
2023-02-16T20:07:12.541Z,99925.81
2023-02-16T20:09:39.755Z,99933.53
2023-02-16T20:12:07.142Z,99938.94
2023-02-16T20:14:34.117Z,99941.88
2023-02-16T20:17:00.994Z,99948.53
2023-02-16T20:19:29.246Z,99946.88
2023-02-16T20:21:56.155Z,99953.53
2023-02-16T20:24:23.105Z,99953.53
2023-02-16T20:26:51.983Z,99951.06
2023-02-16T20:29:20.757Z,99944.84
2023-02-16T20:31:49.788Z,99949.59
2023-02-16T20:34:16.818Z,99948.16
2023-02-16T20:36:45.244Z,99946.94
2023-02-16T20:39:12.214Z,99947.41
2023-02-16T20:41:39.537Z,99952.41
2023-02-16T20:44:06.659Z,99944.50
2023-02-16T20:46:33.683Z,99945.75
2023-02-16T20:49:00.758Z,99934.97
2023-02-16T20:51:27.934Z,99933.91
2023-02-16T20:53:56.221Z,99940.38
2023-02-16T20:56:24.807Z,99938.28
2023-02-16T20:58:53.483Z,99938.72
2023-02-16T21:01:22.410Z,99934.78
2023-02-16T21:03:50.664Z,99937.91
2023-02-16T21:06:18.386Z,99935.03
2023-02-16T21:08:45.398Z,99925.72
2023-02-16T21:11:14.674Z,99928.63
2023-02-16T21:13:41.951Z,99925.97
2023-02-16T21:16:09.430Z,99919.34
2023-02-16T21:18:40.047Z,99920.38
2023-02-16T21:21:07.928Z,99917.91
2023-02-16T21:23:34.863Z,99914.78
2023-02-16T21:26:04.781Z,99907.13
2023-02-16T21:28:33.612Z,99910.66
2023-02-16T21:31:03.141Z,99899.47
2023-02-16T21:33:30.447Z,99898.47
2023-02-16T21:36:03.957Z,99902.41
2023-02-16T21:38:31.221Z,99894.75
2023-02-16T21:41:20.994Z,99906.75
2023-02-16T21:43:49.258Z,99920.06
2023-02-16T21:46:16.374Z,99924.03
2023-02-16T21:48:50.089Z,99931.91
2023-02-16T21:51:19.533Z,99927.53
2023-02-16T21:53:47.237Z,99927.75
2023-02-16T21:56:34.623Z,99934.00
2023-02-16T21:59:05.140Z,99933.38
2023-02-16T22:01:36.130Z,99936.28
2023-02-16T22:04:04.206Z,99930.28
2023-02-16T22:06:33.655Z,99922.81
2023-02-16T22:09:00.921Z,99931.94
2023-02-16T22:11:27.977Z,99928.66
2023-02-16T22:13:55.873Z,99929.47
2023-02-16T22:16:25.270Z,99930.91
2023-02-16T22:18:56.436Z,99919.72
2023-02-16T22:21:23.494Z,99924.28
2023-02-16T22:23:50.364Z,99915.38
2023-02-16T22:26:21.570Z,99917.66
2023-02-16T22:28:49.038Z,99919.53
2023-02-16T22:31:16.440Z,99908.13
2023-02-16T22:33:44.870Z,99912.06
2023-02-16T22:36:15.831Z,99920.34
2023-02-16T22:38:43.481Z,99920.34
2023-02-16T22:41:11.717Z,99912.47
2023-02-16T22:43:39.328Z,99919.13
2023-02-16T22:46:07.751Z,99912.06
2023-02-16T22:48:34.998Z,99913.13
2023-02-16T22:51:05.951Z,99911.44
2023-02-16T22:53:33.068Z,99911.63
2023-02-16T22:56:00.782Z,99913.72
2023-02-16T22:58:27.927Z,99914.97
2023-02-16T23:00:55.988Z,99918.69
2023-02-16T23:03:22.914Z,99917.00
2023-02-16T23:05:49.973Z,99913.72
2023-02-16T23:08:18.314Z,99917.22
2023-02-16T23:10:59.947Z,99919.50
2023-02-16T23:13:28.072Z,99909.97
2023-02-16T23:15:55.288Z,99909.13
2023-02-16T23:18:22.795Z,99914.53
2023-02-16T23:20:49.745Z,99906.44
2023-02-16T23:23:18.055Z,99904.19
2023-02-16T23:25:45.945Z,99899.59
2023-02-16T23:28:13.488Z,99895.47
2023-02-16T23:30:43.225Z,99889.47
2023-02-16T23:33:10.189Z,99900.25
2023-02-16T23:35:37.792Z,99895.06
2023-02-16T23:38:04.685Z,99885.53
2023-02-16T23:40:33.378Z,99889.88
2023-02-16T23:43:00.223Z,99903.34
2023-02-16T23:45:27.221Z,99904.38
2023-02-16T23:47:54.144Z,99905.41
2023-02-16T23:50:21.384Z,99900.22
2023-02-16T23:52:48.288Z,99908.53
2023-02-16T23:55:15.241Z,99912.25
2023-02-16T23:57:43.670Z,99919.50
